Selinsgrove, Pennsylvania
Current Conditions -  °F | °C
As of 8:53 AM on Tuesday 27 Jan 2015 (Local Time) from KSEG Reporting Station
Few Clouds Few Clouds  
Wind Chill: 11°   Ceiling: Unl
Heat Index: 23°   Visibility: 10mi
Dew Point: 14°   Wind: 13mph
Humidity: 68%   Direction: 350°N
Pressure: 29.84"   Gusts: NA
Location:  40.8°N, 76.86°W
Report Text: KSEG 271353Z AUTO 35011KT 10SM FEW120 M05/M10 A2984 RMK AO2 SLP110 T10501100
Loading
Personal Weather Stations






























Interactive Weather Map New forecast layout! Learn more

10-Day Weather Forecast

Advertisements
Track Severe Weather on mobile